Time;durP1;ratioP1;P1;durP2;ratioP2;P2;SDS_P1;SDS_P2;PMS_P1;PMS_P2;Temp;Humidity;BMP_temperature;BMP_pressure;BME280_temperature;BME280_humidity;BME280_pressure;Samples;Min_cycle;Max_cycle;Signal;HPM_P1;HPM_P2
2024/01/14 00:00:34;;;;;;;55.13;28.13;;;3.50;99.90;;;;;;10381167;28;20625;-66
2024/01/14 00:05:38;;;;;;;57.53;29.47;;;3.40;99.90;;;;;;10377664;28;20256;-65
2024/01/14 00:10:42;;;;;;;59.03;29.37;;;3.40;99.90;;;;;;10379643;28;20239;-66
2024/01/14 00:15:47;;;;;;;53.90;28.50;;;3.50;99.90;;;;;;10382011;28;20278;-65
2024/01/14 00:20:51;;;;;;;54.03;27.20;;;3.50;99.90;;;;;;10380017;28;20233;-66
2024/01/14 00:25:54;;;;;;;59.57;29.17;;;3.40;99.90;;;;;;10376282;28;20258;-66
2024/01/14 00:30:59;;;;;;;52.30;26.37;;;3.50;99.90;;;;;;10378848;28;20254;-65
2024/01/14 00:36:04;;;;;;;58.00;29.00;;;3.50;99.90;;;;;;10381470;28;20254;-67
2024/01/14 00:41:08;;;;;;;56.33;28.77;;;3.40;99.90;;;;;;10373896;28;20219;-65
2024/01/14 00:46:14;;;;;;;58.23;28.73;;;3.40;99.90;;;;;;10382899;28;20731;-67
2024/01/14 00:51:18;;;;;;;62.80;29.17;;;3.40;99.90;;;;;;10377748;28;20234;-66
2024/01/14 00:56:21;;;;;;;54.53;26.10;;;3.40;99.90;;;;;;10374178;28;20254;-67
2024/01/14 01:01:26;;;;;;;57.73;29.43;;;3.40;99.90;;;;;;10377830;28;20222;-67
2024/01/14 01:06:30;;;;;;;59.80;29.73;;;3.40;99.90;;;;;;10371191;28;20303;-66
2024/01/14 01:11:34;;;;;;;56.40;29.10;;;3.30;99.90;;;;;;10379556;28;20304;-67
2024/01/14 01:16:39;;;;;;;58.00;29.03;;;3.30;99.90;;;;;;10371208;28;20279;-65
2024/01/14 01:21:43;;;;;;;54.73;28.27;;;3.30;99.90;;;;;;10377532;28;20261;-65
2024/01/14 01:26:46;;;;;;;53.33;28.07;;;3.30;99.90;;;;;;10377571;28;20199;-65
2024/01/14 01:31:51;;;;;;;51.03;27.57;;;3.30;99.90;;;;;;10374011;28;20606;-65
2024/01/14 01:37:06;;;;;;;43.60;25.10;;;3.30;99.90;;;;;;10379770;28;20272;-64
2024/01/14 01:42:11;;;;;;;45.60;24.77;;;3.30;99.90;;;;;;10384162;28;20227;-65
2024/01/14 01:47:16;;;;;;;48.67;24.27;;;3.30;99.90;;;;;;10373541;28;20680;-66
2024/01/14 01:52:20;;;;;;;47.00;23.07;;;3.30;99.90;;;;;;10371619;28;20245;-66
2024/01/14 01:57:24;;;;;;;42.07;23.00;;;3.30;99.90;;;;;;10372905;28;20319;-66
2024/01/14 02:02:29;;;;;;;41.10;20.50;;;3.30;99.90;;;;;;10372589;28;20283;-67
2024/01/14 02:07:34;;;;;;;39.33;20.63;;;3.30;99.90;;;;;;10376409;28;20198;-66
2024/01/14 02:12:37;;;;;;;42.43;21.67;;;3.30;99.90;;;;;;10375971;28;20700;-66
2024/01/14 02:17:42;;;;;;;42.53;22.90;;;3.40;99.90;;;;;;10374511;28;20307;-67
2024/01/14 02:22:47;;;;;;;42.27;22.53;;;3.40;99.90;;;;;;10373001;28;20262;-67
2024/01/14 02:27:53;;;;;;;45.23;22.87;;;3.40;99.90;;;;;;10372294;28;20237;-66
2024/01/14 02:32:57;;;;;;;46.63;22.53;;;3.40;99.90;;;;;;10370577;28;20224;-66
2024/01/14 02:38:01;;;;;;;47.07;23.20;;;3.40;99.90;;;;;;10376296;28;20257;-66
2024/01/14 02:43:06;;;;;;;40.63;20.97;;;3.40;99.90;;;;;;10370410;28;20250;-67
2024/01/14 02:48:10;;;;;;;40.63;20.03;;;3.40;99.90;;;;;;10370233;28;20225;-67
2024/01/14 02:53:14;;;;;;;40.10;20.33;;;3.50;99.90;;;;;;10370100;28;20230;-67
2024/01/14 02:58:19;;;;;;;45.87;21.60;;;3.50;99.90;;;;;;10375316;28;20257;-65
2024/01/14 03:03:22;;;;;;;45.60;21.40;;;3.50;99.90;;;;;;10368172;28;20314;-66
2024/01/14 03:08:26;;;;;;;46.50;22.93;;;3.40;99.90;;;;;;10376025;28;20225;-63
2024/01/14 03:13:31;;;;;;;43.03;22.20;;;3.40;99.90;;;;;;10374409;28;20805;-62
2024/01/14 03:18:35;;;;;;;46.03;23.40;;;3.40;99.90;;;;;;10369742;28;20268;-62
2024/01/14 03:23:39;;;;;;;45.60;23.43;;;3.30;99.90;;;;;;10366723;28;20299;-62
2024/01/14 03:28:44;;;;;;;42.97;22.77;;;3.30;99.90;;;;;;10372519;28;20253;-63
2024/01/14 03:33:47;;;;;;;43.37;22.53;;;3.40;99.90;;;;;;10373116;28;20251;-63
2024/01/14 03:38:51;;;;;;;42.10;22.07;;;3.40;99.90;;;;;;10372444;28;20781;-63
2024/01/14 03:43:56;;;;;;;49.17;24.03;;;3.40;99.90;;;;;;10370633;28;20280;-64
2024/01/14 03:49:00;;;;;;;42.67;22.60;;;3.40;99.90;;;;;;10370864;28;20733;-64
2024/01/14 03:54:04;;;;;;;47.00;22.23;;;3.40;99.90;;;;;;10376390;28;20312;-63
2024/01/14 03:59:09;;;;;;;41.87;23.40;;;3.40;99.90;;;;;;10372462;28;20821;-64
2024/01/14 04:04:13;;;;;;;41.60;21.57;;;3.40;99.90;;;;;;10377710;28;20222;-64
2024/01/14 04:09:16;;;;;;;40.13;22.00;;;3.40;99.90;;;;;;10380291;28;20608;-62
2024/01/14 04:14:22;;;;;;;41.60;21.57;;;3.40;99.90;;;;;;10372701;28;20541;-64
2024/01/14 04:19:25;;;;;;;37.70;20.27;;;3.40;99.90;;;;;;10371724;28;20693;-64
2024/01/14 04:24:29;;;;;;;39.27;21.03;;;3.40;99.90;;;;;;10373204;28;20234;-64
2024/01/14 04:29:34;;;;;;;39.23;21.50;;;3.40;99.90;;;;;;10371779;28;20228;-64
2024/01/14 04:34:38;;;;;;;40.33;21.87;;;3.40;99.90;;;;;;10374244;28;20243;-62
2024/01/14 04:39:42;;;;;;;38.53;21.73;;;3.40;99.90;;;;;;10372444;28;20644;-63
2024/01/14 04:44:47;;;;;;;44.57;22.47;;;3.40;99.90;;;;;;10372992;28;20242;-63
2024/01/14 04:49:51;;;;;;;49.07;24.63;;;3.40;99.90;;;;;;10376013;28;20236;-63
2024/01/14 04:54:55;;;;;;;47.37;25.37;;;3.40;99.90;;;;;;10380871;28;20250;-63
2024/01/14 05:00:00;;;;;;;48.67;24.53;;;3.40;99.90;;;;;;10382538;28;20286;-63
2024/01/14 05:05:04;;;;;;;48.43;25.00;;;3.50;99.90;;;;;;10375829;28;20202;-62
2024/01/14 05:10:08;;;;;;;46.93;25.07;;;3.40;99.90;;;;;;10374909;28;20218;-63
2024/01/14 05:15:13;;;;;;;51.03;26.00;;;3.40;99.90;;;;;;10371947;28;20625;-63
2024/01/14 05:20:17;;;;;;;53.60;26.80;;;3.40;99.90;;;;;;10378422;28;20277;-61
2024/01/14 05:25:21;;;;;;;55.67;27.37;;;3.40;99.90;;;;;;10371090;28;20203;-62
2024/01/14 05:30:26;;;;;;;51.23;24.80;;;3.40;99.90;;;;;;10382505;28;20243;-61
2024/01/14 05:35:30;;;;;;;50.73;26.03;;;3.40;99.90;;;;;;10374910;28;20308;-62
2024/01/14 05:40:33;;;;;;;51.03;26.40;;;3.40;99.90;;;;;;10372764;28;20321;-61
2024/01/14 05:45:40;;;;;;;46.27;24.40;;;3.40;99.90;;;;;;10371288;28;20214;-62
2024/01/14 05:50:44;;;;;;;53.93;27.47;;;3.40;99.90;;;;;;10374295;28;20233;-62
2024/01/14 05:55:48;;;;;;;54.10;27.50;;;3.30;99.90;;;;;;10375749;28;20200;-62
2024/01/14 06:00:53;;;;;;;51.93;25.97;;;3.40;99.90;;;;;;10374674;28;20764;-61
2024/01/14 06:05:57;;;;;;;53.50;26.50;;;3.30;99.90;;;;;;10371465;28;20186;-62
2024/01/14 06:11:01;;;;;;;52.33;25.67;;;3.30;99.90;;;;;;10377835;28;20367;-62
2024/01/14 06:16:07;;;;;;;50.93;24.93;;;3.30;99.90;;;;;;10378850;28;20206;-62
2024/01/14 06:21:10;;;;;;;52.63;26.33;;;3.30;99.90;;;;;;10377752;28;20766;-62
2024/01/14 06:26:17;;;;;;;53.67;25.63;;;3.30;99.90;;;;;;10378878;28;20255;-58
2024/01/14 06:31:22;;;;;;;50.33;24.97;;;3.30;99.90;;;;;;10377528;28;20228;-61
2024/01/14 06:36:26;;;;;;;42.73;22.57;;;3.40;99.90;;;;;;10369789;28;20216;-62
2024/01/14 06:41:30;;;;;;;45.50;23.13;;;3.40;99.90;;;;;;10370788;28;20219;-62
2024/01/14 06:46:35;;;;;;;44.67;24.07;;;3.30;99.90;;;;;;10372516;28;20200;-61
2024/01/14 06:51:43;;;;;;;47.03;25.23;;;3.30;99.90;;;;;;10364902;28;20216;-64
2024/01/14 06:56:48;;;;;;;44.67;24.97;;;3.40;99.90;;;;;;10377413;28;20299;-64
2024/01/14 07:01:53;;;;;;;45.57;24.03;;;3.40;99.90;;;;;;10370514;28;20971;-65
2024/01/14 07:06:57;;;;;;;49.93;28.43;;;3.50;99.90;;;;;;10371203;28;20430;-63
2024/01/14 07:12:00;;;;;;;48.93;26.57;;;3.50;99.90;;;;;;10381893;28;20281;-64
2024/01/14 07:17:05;;;;;;;48.10;26.57;;;3.50;99.90;;;;;;10374030;28;20352;-63
2024/01/14 07:22:09;;;;;;;53.33;27.90;;;3.50;99.90;;;;;;10367452;28;20234;-63
2024/01/14 07:27:14;;;;;;;54.97;27.97;;;3.50;99.90;;;;;;10365959;28;20193;-63
2024/01/14 07:32:19;;;;;;;55.90;30.27;;;3.50;99.90;;;;;;10329838;28;21036;-63
2024/01/14 07:37:23;;;;;;;54.43;29.10;;;3.50;99.90;;;;;;10363563;28;20249;-63
2024/01/14 07:42:27;;;;;;;52.37;29.03;;;3.50;99.90;;;;;;10368962;28;20754;-63
2024/01/14 07:47:32;;;;;;;56.90;29.47;;;3.50;99.90;;;;;;10367248;28;20218;-63
2024/01/14 07:52:36;;;;;;;53.97;28.23;;;3.50;99.90;;;;;;10363983;28;20230;-67
2024/01/14 07:57:39;;;;;;;50.50;27.33;;;3.50;99.90;;;;;;10363203;28;20257;-68
2024/01/14 08:02:44;;;;;;;51.43;27.57;;;3.50;99.90;;;;;;10364102;28;20223;-69
2024/01/14 08:07:48;;;;;;;50.77;26.93;;;3.40;99.90;;;;;;10364963;28;20266;-66
2024/01/14 08:12:52;;;;;;;51.43;27.87;;;3.40;99.90;;;;;;10363912;28;20231;-67
2024/01/14 08:18:05;;;;;;;53.30;27.07;;;3.40;99.90;;;;;;10371519;28;20226;-69
2024/01/14 08:23:10;;;;;;;52.10;27.87;;;3.40;99.90;;;;;;10379539;28;20230;-68
2024/01/14 08:28:17;;;;;;;51.73;27.30;;;3.40;99.90;;;;;;10376140;28;20202;-68
2024/01/14 08:33:22;;;;;;;53.97;29.13;;;3.50;99.90;;;;;;10371854;28;20232;-69
2024/01/14 08:38:26;;;;;;;48.60;26.07;;;3.50;99.90;;;;;;10375861;28;20213;-66
2024/01/14 08:43:30;;;;;;;52.13;28.63;;;3.60;99.90;;;;;;10375413;28;20278;-67
2024/01/14 08:48:35;;;;;;;48.67;27.13;;;3.50;99.90;;;;;;10368192;28;20254;-70
2024/01/14 08:53:39;;;;;;;49.23;26.47;;;3.50;99.90;;;;;;10367020;28;20319;-70
2024/01/14 08:58:42;;;;;;;47.57;26.30;;;3.50;99.90;;;;;;10366542;28;20260;-69
2024/01/14 09:03:47;;;;;;;50.10;26.53;;;3.40;99.90;;;;;;10368844;28;20353;-67
2024/01/14 09:08:51;;;;;;;49.80;27.73;;;3.50;99.90;;;;;;10368915;28;20193;-67
2024/01/14 09:13:55;;;;;;;48.10;25.20;;;3.50;99.90;;;;;;10369270;28;20280;-67
2024/01/14 09:19:00;;;;;;;48.13;25.53;;;3.50;99.90;;;;;;10369393;28;20244;-67
2024/01/14 09:24:05;;;;;;;49.30;27.40;;;3.50;99.90;;;;;;10378769;28;20229;-67
2024/01/14 09:29:09;;;;;;;49.77;26.23;;;3.50;99.90;;;;;;10371912;28;20338;-68
2024/01/14 09:34:14;;;;;;;52.93;27.67;;;3.50;99.90;;;;;;10369020;28;20236;-68
2024/01/14 09:39:18;;;;;;;45.67;25.60;;;3.60;99.90;;;;;;10377163;28;20357;-67
2024/01/14 09:44:22;;;;;;;41.60;23.90;;;3.60;99.90;;;;;;10372533;28;20760;-70
2024/01/14 09:49:27;;;;;;;45.47;30.87;;;3.60;99.90;;;;;;10368738;28;20447;-66
2024/01/14 09:54:32;;;;;;;42.23;25.23;;;3.60;99.90;;;;;;10366405;28;20239;-67
2024/01/14 09:59:37;;;;;;;38.00;23.33;;;3.60;99.90;;;;;;10376690;28;20637;-66
2024/01/14 10:04:42;;;;;;;41.13;24.23;;;3.50;99.90;;;;;;10372264;28;20850;-66
2024/01/14 10:09:47;;;;;;;40.50;22.67;;;3.50;99.90;;;;;;10369380;28;20243;-67
2024/01/14 10:14:58;;;;;;;40.73;23.10;;;3.40;99.90;;;;;;10364693;28;20209;-66
2024/01/14 10:20:03;;;;;;;43.83;23.87;;;3.40;99.90;;;;;;10370707;28;20268;-67
2024/01/14 10:25:07;;;;;;;45.40;24.53;;;3.30;99.90;;;;;;10363272;28;20545;-68
2024/01/14 10:30:11;;;;;;;43.80;23.80;;;3.40;99.90;;;;;;10364383;28;20256;-67
2024/01/14 10:35:19;;;;;;;38.53;21.67;;;3.40;99.90;;;;;;10360960;28;20674;-65
2024/01/14 10:40:24;;;;;;;41.60;21.73;;;3.40;99.90;;;;;;10364130;28;20256;-65
2024/01/14 10:45:29;;;;;;;36.37;21.13;;;3.40;99.90;;;;;;10363663;28;20215;-66
2024/01/14 10:50:36;;;;;;;37.47;21.33;;;3.30;99.90;;;;;;10366227;28;20228;-66
2024/01/14 10:55:57;;;;;;;32.50;19.93;;;3.30;99.90;;;;;;10375522;28;20207;-67
2024/01/14 11:01:03;;;;;;;30.70;19.10;;;3.30;99.90;;;;;;10367455;28;20259;-67
2024/01/14 11:06:09;;;;;;;31.00;17.80;;;3.30;99.90;;;;;;10365620;28;20224;-67
2024/01/14 11:11:15;;;;;;;32.37;19.33;;;3.20;99.90;;;;;;10364244;28;20602;-66
2024/01/14 11:16:25;;;;;;;32.30;17.93;;;3.20;99.90;;;;;;10362039;28;20209;-68
2024/01/14 11:21:51;;;;;;;28.77;17.90;;;3.20;99.90;;;;;;10364552;28;20220;-67
2024/01/14 11:27:15;;;;;;;30.30;17.17;;;3.20;99.90;;;;;;10372308;28;20794;-66
2024/01/14 11:32:27;;;;;;;28.93;16.73;;;3.20;99.90;;;;;;10360672;28;20614;-67
2024/01/14 11:37:39;;;;;;;26.90;17.60;;;3.20;99.90;;;;;;10363235;28;20239;-67
2024/01/14 11:42:49;;;;;;;25.53;17.17;;;3.30;99.90;;;;;;10364890;28;20255;-67
2024/01/14 11:47:55;;;;;;;26.70;17.53;;;3.30;99.90;;;;;;10364357;28;20208;-66
2024/01/14 11:53:01;;;;;;;23.43;14.67;;;3.30;99.90;;;;;;10374530;28;20263;-68
2024/01/14 11:58:13;;;;;;;20.83;13.27;;;3.40;99.90;;;;;;10378020;28;20202;-66
2024/01/14 12:03:19;;;;;;;21.40;13.47;;;3.30;99.90;;;;;;10374152;28;20692;-67
2024/01/14 12:08:24;;;;;;;24.53;14.80;;;3.30;99.90;;;;;;10379902;28;20209;-66
2024/01/14 12:13:28;;;;;;;23.30;14.40;;;3.30;99.90;;;;;;10369463;28;20218;-66
2024/01/14 12:18:41;;;;;;;25.90;15.33;;;3.30;99.90;;;;;;10365656;28;20216;-66
2024/01/14 12:23:51;;;;;;;28.27;17.27;;;3.30;99.90;;;;;;10374378;28;20282;-67
2024/01/14 12:28:55;;;;;;;26.97;16.80;;;3.30;99.90;;;;;;10373000;28;20255;-67
2024/01/14 12:34:04;;;;;;;26.43;16.87;;;3.20;99.90;;;;;;10371617;28;20850;-67
2024/01/14 12:39:10;;;;;;;26.23;16.80;;;3.20;99.90;;;;;;10376620;28;20250;-67
2024/01/14 12:44:14;;;;;;;22.50;15.13;;;3.30;99.90;;;;;;10374103;28;20213;-66
2024/01/14 12:49:18;;;;;;;27.47;16.60;;;3.30;99.90;;;;;;10374298;28;20250;-66
2024/01/14 12:54:24;;;;;;;24.00;15.20;;;3.20;99.90;;;;;;10368439;28;20253;-67
2024/01/14 12:59:31;;;;;;;27.37;15.73;;;3.30;99.90;;;;;;10367925;28;20709;-66
2024/01/14 13:04:35;;;;;;;27.53;15.90;;;3.20;99.90;;;;;;10377579;28;20242;-67
2024/01/14 13:09:40;;;;;;;25.83;15.97;;;3.30;99.90;;;;;;10377404;28;20696;-67
2024/01/14 13:14:45;;;;;;;27.33;16.67;;;3.30;99.90;;;;;;10378349;28;20204;-66
2024/01/14 13:19:49;;;;;;;26.80;16.83;;;3.30;99.90;;;;;;10374425;28;20234;-66
2024/01/14 13:24:54;;;;;;;28.57;16.90;;;3.30;99.90;;;;;;10382674;28;20275;-67
2024/01/14 13:29:58;;;;;;;28.03;17.17;;;3.20;99.90;;;;;;10392019;28;20224;-69
2024/01/14 13:35:02;;;;;;;27.40;16.80;;;3.20;99.90;;;;;;10380220;28;20204;-68
2024/01/14 13:40:09;;;;;;;27.37;16.43;;;3.20;99.90;;;;;;10375600;28;20228;-69
2024/01/14 13:45:14;;;;;;;26.50;16.13;;;3.20;99.90;;;;;;10376769;28;20193;-68
2024/01/14 13:50:18;;;;;;;24.40;15.17;;;3.20;99.90;;;;;;10378695;28;20278;-68
2024/01/14 13:55:25;;;;;;;24.60;15.60;;;3.10;99.90;;;;;;10375545;28;20841;-68
2024/01/14 14:00:28;;;;;;;26.90;16.83;;;3.20;99.90;;;;;;10379375;28;20257;-68
2024/01/14 14:05:32;;;;;;;25.07;15.67;;;3.10;99.90;;;;;;10379707;28;20225;-68
2024/01/14 14:10:38;;;;;;;24.43;15.33;;;3.10;99.90;;;;;;10376447;28;20226;-67
2024/01/14 14:15:52;;;;;;;22.43;13.90;;;3.10;99.90;;;;;;10371946;28;20270;-65
2024/01/14 14:20:56;;;;;;;26.07;15.70;;;3.10;99.90;;;;;;10372562;28;20230;-63
2024/01/14 14:26:01;;;;;;;25.90;17.17;;;3.10;99.90;;;;;;10380822;28;20212;-63
2024/01/14 14:31:05;;;;;;;26.13;15.80;;;3.10;99.90;;;;;;10370406;28;20228;-66
2024/01/14 14:36:09;;;;;;;24.43;15.97;;;3.20;99.90;;;;;;10371657;28;20667;-65
2024/01/14 14:41:14;;;;;;;25.67;16.57;;;3.20;99.90;;;;;;10376776;28;20292;-66
2024/01/14 14:46:32;;;;;;;28.27;16.70;;;3.30;99.90;;;;;;10362137;28;20264;-65
2024/01/14 14:51:37;;;;;;;26.23;16.57;;;3.30;99.90;;;;;;10362616;28;20234;-65
2024/01/14 14:56:45;;;;;;;26.43;16.13;;;3.30;99.90;;;;;;10365734;28;20542;-65
2024/01/14 15:01:49;;;;;;;25.43;16.53;;;3.30;99.90;;;;;;10370716;28;20274;-66
2024/01/14 15:06:53;;;;;;;24.73;16.80;;;3.30;99.90;;;;;;10369353;28;20216;-65
2024/01/14 15:11:58;;;;;;;25.27;16.60;;;3.30;99.90;;;;;;10367368;28;20240;-66
2024/01/14 15:17:03;;;;;;;28.10;17.43;;;3.30;99.90;;;;;;10371321;28;20232;-66
2024/01/14 15:22:06;;;;;;;32.30;18.37;;;3.30;99.90;;;;;;10362519;28;20259;-65
2024/01/14 15:27:18;;;;;;;28.40;17.63;;;3.30;99.90;;;;;;10362470;28;20228;-68
2024/01/14 15:32:22;;;;;;;27.43;18.07;;;3.20;99.90;;;;;;10368712;28;20220;-68
2024/01/14 15:37:26;;;;;;;29.73;18.40;;;3.30;99.90;;;;;;10366385;28;20286;-66
2024/01/14 15:42:31;;;;;;;31.47;18.73;;;3.30;99.90;;;;;;10366132;28;20276;-70
2024/01/14 15:47:36;;;;;;;28.80;18.63;;;3.20;99.90;;;;;;10369009;28;20201;-69
2024/01/14 15:52:40;;;;;;;30.40;17.40;;;3.20;99.90;;;;;;10357451;28;20256;-69
2024/01/14 15:57:45;;;;;;;28.30;17.73;;;3.20;99.90;;;;;;10363873;28;20262;-70
2024/01/14 16:02:48;;;;;;;31.80;18.57;;;3.20;99.90;;;;;;10360051;28;20350;-69
2024/01/14 16:07:52;;;;;;;26.43;17.17;;;3.20;99.90;;;;;;10361434;28;20204;-68
2024/01/14 16:12:57;;;;;;;30.67;17.97;;;3.20;99.90;;;;;;10364000;28;20224;-69
2024/01/14 16:18:01;;;;;;;29.40;18.33;;;3.20;99.90;;;;;;10365868;28;20248;-67
2024/01/14 16:23:06;;;;;;;28.30;17.30;;;3.20;99.90;;;;;;10362124;28;20326;-67
2024/01/14 16:28:14;;;;;;;28.63;18.33;;;3.20;99.90;;;;;;10361612;28;20204;-68
2024/01/14 16:33:18;;;;;;;27.67;16.87;;;3.20;99.90;;;;;;10360876;28;20226;-66
2024/01/14 16:38:22;;;;;;;27.50;17.33;;;3.20;99.90;;;;;;10373893;28;20264;-67
2024/01/14 16:43:27;;;;;;;28.40;17.77;;;3.10;99.90;;;;;;10374808;28;20703;-65
2024/01/14 16:48:31;;;;;;;29.73;17.77;;;3.10;99.90;;;;;;10372501;28;20231;-65
2024/01/14 16:53:35;;;;;;;26.90;17.17;;;3.20;99.90;;;;;;10373301;28;20298;-67
2024/01/14 16:58:41;;;;;;;29.90;18.30;;;3.20;99.90;;;;;;10375661;28;20206;-68
2024/01/14 17:03:45;;;;;;;29.93;19.07;;;3.20;99.90;;;;;;10375800;28;20253;-64
2024/01/14 17:08:50;;;;;;;29.03;18.97;;;3.10;99.90;;;;;;10379060;28;20261;-65
2024/01/14 17:13:55;;;;;;;30.50;19.23;;;3.10;99.90;;;;;;10380491;28;20711;-69
2024/01/14 17:19:00;;;;;;;30.83;19.47;;;3.10;99.90;;;;;;10372339;28;20702;-65
2024/01/14 17:24:04;;;;;;;28.00;19.37;;;3.10;99.90;;;;;;10369407;28;20227;-67
2024/01/14 17:29:10;;;;;;;30.07;18.87;;;3.10;99.90;;;;;;10372196;28;20623;-67
2024/01/14 17:34:14;;;;;;;28.47;18.00;;;3.00;99.90;;;;;;10409389;22;20739;-62
2024/01/14 17:39:18;;;;;;;28.50;18.90;;;3.00;99.90;;;;;;10404994;28;20300;-62
2024/01/14 17:44:24;;;;;;;28.80;18.17;;;3.00;99.90;;;;;;10387362;28;22017;-63
2024/01/14 17:49:28;;;;;;;32.60;19.80;;;2.90;99.90;;;;;;10375049;28;20228;-65
2024/01/14 17:54:34;;;;;;;30.53;17.80;;;2.90;99.90;;;;;;10372585;28;20629;-63
2024/01/14 17:59:41;;;;;;;32.57;20.53;;;2.90;99.90;;;;;;10371832;28;20297;-63
2024/01/14 18:04:45;;;;;;;33.97;20.67;;;2.90;99.90;;;;;;10365424;28;20250;-64
2024/01/14 18:09:49;;;;;;;30.17;19.17;;;2.90;99.90;;;;;;10374425;28;20278;-63
2024/01/14 18:14:54;;;;;;;30.57;20.00;;;2.90;99.70;;;;;;10372548;28;20222;-62
2024/01/14 18:19:57;;;;;;;35.70;19.73;;;2.80;99.60;;;;;;10383274;28;20721;-64
2024/01/14 18:25:01;;;;;;;37.87;22.03;;;2.80;99.70;;;;;;10372838;28;20699;-62
2024/01/14 18:30:08;;;;;;;32.83;19.53;;;2.70;99.70;;;;;;10380776;28;20208;-63
2024/01/14 18:35:19;;;;;;;33.90;20.00;;;2.70;99.90;;;;;;10367647;28;20290;-62
2024/01/14 18:40:23;;;;;;;38.13;21.47;;;2.70;99.70;;;;;;10379050;28;20234;-62
2024/01/14 18:45:28;;;;;;;39.50;21.63;;;2.70;99.80;;;;;;10360246;28;20273;-61
2024/01/14 18:50:33;;;;;;;40.10;22.57;;;2.70;99.90;;;;;;10373486;28;20297;-62
2024/01/14 18:55:39;;;;;;;37.63;21.87;;;2.70;99.90;;;;;;10376484;28;20270;-63
2024/01/14 19:00:45;;;;;;;37.83;21.37;;;2.60;99.90;;;;;;10375480;28;20235;-62
2024/01/14 19:05:49;;;;;;;38.00;22.80;;;2.60;99.90;;;;;;10377408;28;20731;-62
2024/01/14 19:10:53;;;;;;;45.50;23.63;;;2.60;99.90;;;;;;10379171;28;21194;-64
2024/01/14 19:15:58;;;;;;;36.50;22.53;;;2.70;99.90;;;;;;10370516;28;20253;-62
2024/01/14 19:21:03;;;;;;;36.87;23.07;;;2.70;99.90;;;;;;10375732;28;20208;-61
2024/01/14 19:26:07;;;;;;;38.87;22.63;;;2.70;99.90;;;;;;10389695;28;20232;-61
2024/01/14 19:31:12;;;;;;;40.53;24.07;;;2.70;99.90;;;;;;10378659;28;20239;-61
2024/01/14 19:36:20;;;;;;;37.47;22.47;;;2.70;99.90;;;;;;10385643;28;20232;-61
2024/01/14 19:41:23;;;;;;;40.87;24.23;;;2.80;99.90;;;;;;10368402;28;20295;-60
2024/01/14 19:46:28;;;;;;;36.17;22.10;;;2.70;99.90;;;;;;10381654;28;20266;-60
2024/01/14 19:51:32;;;;;;;33.80;21.60;;;2.80;99.90;;;;;;10374536;28;20597;-61
2024/01/14 19:56:38;;;;;;;36.00;22.77;;;2.70;99.90;;;;;;10368215;28;20256;-60
2024/01/14 20:01:43;;;;;;;34.70;21.43;;;2.70;99.90;;;;;;10385118;28;20383;-60
2024/01/14 20:06:49;;;;;;;33.17;21.27;;;2.70;99.90;;;;;;10375499;28;20205;-60
2024/01/14 20:11:56;;;;;;;30.43;20.43;;;2.70;99.90;;;;;;10398319;28;20248;-61
2024/01/14 20:17:01;;;;;;;32.27;20.27;;;2.60;99.90;;;;;;10377384;28;20736;-60
2024/01/14 20:22:05;;;;;;;31.07;20.93;;;2.60;99.90;;;;;;10380654;28;20275;-61
2024/01/14 20:27:09;;;;;;;31.30;20.67;;;2.60;99.90;;;;;;10379583;28;20204;-62
2024/01/14 20:32:14;;;;;;;32.53;20.47;;;2.60;99.90;;;;;;10369495;28;20264;-67
2024/01/14 20:37:18;;;;;;;31.97;19.47;;;2.60;99.90;;;;;;10383305;28;20259;-67
2024/01/14 20:42:22;;;;;;;30.10;19.30;;;2.60;99.90;;;;;;10382785;28;20241;-67
2024/01/14 20:47:28;;;;;;;26.73;17.30;;;2.60;99.90;;;;;;10391770;28;20307;-67
2024/01/14 20:52:31;;;;;;;27.83;18.57;;;2.60;99.90;;;;;;10392101;28;20241;-66
2024/01/14 20:57:35;;;;;;;32.33;19.17;;;2.60;99.90;;;;;;10387763;28;20257;-66
2024/01/14 21:02:40;;;;;;;27.77;16.73;;;2.70;99.90;;;;;;10387598;28;20255;-66
2024/01/14 21:07:44;;;;;;;29.63;18.17;;;2.60;99.90;;;;;;10379992;28;20227;-65
2024/01/14 21:12:48;;;;;;;29.90;18.03;;;2.60;99.90;;;;;;10381452;28;20239;-66
2024/01/14 21:17:53;;;;;;;27.80;17.83;;;2.60;99.90;;;;;;10383089;28;20235;-65
2024/01/14 21:22:58;;;;;;;28.77;18.23;;;2.60;99.90;;;;;;10383985;28;20258;-65
2024/01/14 21:28:03;;;;;;;25.87;16.97;;;2.60;99.90;;;;;;10384885;28;20749;-65
2024/01/14 21:33:08;;;;;;;30.63;18.40;;;2.60;99.90;;;;;;10382908;28;20294;-66
2024/01/14 21:38:12;;;;;;;27.10;17.63;;;2.50;99.90;;;;;;10371291;28;20283;-67
2024/01/14 21:43:16;;;;;;;28.03;18.17;;;2.60;99.90;;;;;;10362317;28;20259;-67
2024/01/14 21:48:25;;;;;;;31.10;18.83;;;2.50;99.90;;;;;;10362317;28;20200;-65
2024/01/14 21:53:29;;;;;;;27.23;17.40;;;2.60;99.90;;;;;;10357103;28;20280;-68
2024/01/14 21:58:33;;;;;;;30.50;19.03;;;2.60;99.90;;;;;;10386398;28;20615;-67
2024/01/14 22:03:38;;;;;;;30.97;18.77;;;2.60;99.90;;;;;;10378768;28;20262;-68
2024/01/14 22:08:42;;;;;;;29.03;19.13;;;2.60;99.90;;;;;;10388826;28;20261;-68
2024/01/14 22:13:45;;;;;;;32.40;20.30;;;2.60;99.90;;;;;;10378461;28;20239;-67
2024/01/14 22:18:50;;;;;;;34.80;21.33;;;2.60;99.90;;;;;;10376102;28;20217;-68
2024/01/14 22:23:54;;;;;;;34.70;20.77;;;2.60;99.90;;;;;;10379164;28;20257;-67
2024/01/14 22:28:58;;;;;;;35.07;20.57;;;2.60;99.90;;;;;;10375580;28;20740;-68
2024/01/14 22:34:03;;;;;;;32.27;20.00;;;2.60;99.90;;;;;;10371820;28;20264;-68
2024/01/14 22:39:07;;;;;;;36.90;21.90;;;2.60;99.90;;;;;;10380221;28;20207;-67
2024/01/14 22:44:12;;;;;;;35.67;21.60;;;2.70;99.90;;;;;;10376914;28;20263;-68
2024/01/14 22:49:17;;;;;;;38.13;22.33;;;2.70;99.90;;;;;;10382504;28;20659;-68
2024/01/14 22:54:21;;;;;;;35.97;21.03;;;2.70;99.90;;;;;;10378233;28;20228;-68
2024/01/14 22:59:25;;;;;;;37.03;20.97;;;2.70;99.90;;;;;;10374570;28;20212;-68
2024/01/14 23:04:29;;;;;;;32.47;19.70;;;2.70;99.90;;;;;;10373915;28;20868;-68
2024/01/14 23:09:34;;;;;;;32.37;20.03;;;2.70;99.90;;;;;;10378158;28;20692;-68
2024/01/14 23:14:37;;;;;;;29.87;19.70;;;2.70;99.90;;;;;;10375158;28;20245;-68
2024/01/14 23:19:42;;;;;;;33.37;20.37;;;2.70;99.90;;;;;;10378641;28;20204;-68
2024/01/14 23:24:46;;;;;;;30.13;19.30;;;2.70;99.90;;;;;;10382690;28;20253;-68
2024/01/14 23:29:50;;;;;;;31.93;21.07;;;2.70;99.90;;;;;;10377548;28;20207;-69
2024/01/14 23:34:55;;;;;;;35.77;21.37;;;2.70;99.90;;;;;;10382739;28;20253;-67
2024/01/14 23:39:58;;;;;;;35.23;20.87;;;2.70;99.90;;;;;;10382890;28;20227;-67
2024/01/14 23:45:02;;;;;;;35.73;22.20;;;2.70;99.90;;;;;;10379213;28;20249;-67
2024/01/14 23:50:09;;;;;;;37.73;22.20;;;2.70;99.90;;;;;;10398414;22;20202;-65
2024/01/14 23:55:12;;;;;;;40.43;23.67;;;2.70;99.90;;;;;;10407043;28;20202;-65
